Time;durP1;ratioP1;P1;durP2;ratioP2;P2;SDS_P1;SDS_P2;PMS_P1;PMS_P2;Temp;Humidity;BMP_temperature;BMP_pressure;BME280_temperature;BME280_humidity;BME280_pressure;Samples;Min_cycle;Max_cycle;Signal;HPM_P1;HPM_P2
2021/09/11 00:00:02;;;;;;;14.18;12.68;;;;;;;;;;5076564;28;20047;-73
2021/09/11 00:02:28;;;;;;;17.55;13.95;;;;;;;;;;5076730;28;20024;-72
2021/09/11 00:04:54;;;;;;;13.93;12.63;;;;;;;;;;5076706;28;20032;-73
2021/09/11 00:07:21;;;;;;;18.15;13.50;;;;;;;;;;5076302;28;20385;-74
2021/09/11 00:09:47;;;;;;;14.57;13.18;;;;;;;;;;5076392;28;20031;-73
2021/09/11 00:12:13;;;;;;;14.43;12.40;;;;;;;;;;5076769;28;20371;-73
2021/09/11 00:14:39;;;;;;;13.10;11.77;;;;;;;;;;5076431;28;20016;-72
2021/09/11 00:17:05;;;;;;;15.60;12.80;;;;;;;;;;5076566;28;20021;-72
2021/09/11 00:19:31;;;;;;;15.43;12.73;;;;;;;;;;5076470;28;20036;-72
2021/09/11 00:21:58;;;;;;;14.50;12.88;;;;;;;;;;5076124;28;20035;-73
2021/09/11 00:24:24;;;;;;;14.15;12.75;;;;;;;;;;5076233;28;20025;-73
2021/09/11 00:26:50;;;;;;;17.42;13.15;;;;;;;;;;5076228;28;20029;-73
2021/09/11 00:29:16;;;;;;;13.13;11.77;;;;;;;;;;5076410;28;20021;-72
2021/09/11 00:31:42;;;;;;;12.90;11.55;;;;;;;;;;5075862;28;20381;-73
2021/09/11 00:34:08;;;;;;;14.32;12.82;;;;;;;;;;5076118;28;20052;-73
2021/09/11 00:36:35;;;;;;;14.40;12.90;;;;;;;;;;5075917;28;20477;-73
2021/09/11 00:39:01;;;;;;;13.70;12.32;;;;;;;;;;5075699;28;20032;-73
2021/09/11 00:41:27;;;;;;;13.55;12.20;;;;;;;;;;5076023;28;20382;-73
2021/09/11 00:43:53;;;;;;;14.50;12.68;;;;;;;;;;5075542;28;20025;-73
2021/09/11 00:46:19;;;;;;;16.70;11.90;;;;;;;;;;5075885;28;20103;-72
2021/09/11 00:48:45;;;;;;;13.73;12.25;;;;;;;;;;5075650;28;20471;-73
2021/09/11 00:51:11;;;;;;;13.00;11.68;;;;;;;;;;5075302;28;20016;-73
2021/09/11 00:53:38;;;;;;;13.63;12.32;;;;;;;;;;5075688;28;20025;-73
2021/09/11 00:56:04;;;;;;;13.88;12.55;;;;;;;;;;5075307;28;20114;-73
2021/09/11 00:58:30;;;;;;;14.93;12.38;;;;;;;;;;5075599;28;20037;-73
2021/09/11 01:00:56;;;;;;;13.80;10.90;;;;;;;;;;5075881;28;20024;-72
2021/09/11 01:03:22;;;;;;;17.27;13.32;;;;;;;;;;5075622;28;20052;-72
2021/09/11 01:05:48;;;;;;;15.40;13.30;;;;;;;;;;5075137;28;20471;-72
2021/09/11 01:08:14;;;;;;;18.67;11.93;;;;;;;;;;5075021;28;20051;-73
2021/09/11 01:10:40;;;;;;;13.70;11.68;;;;;;;;;;5075905;28;20159;-73
2021/09/11 01:13:09;;;;;;;11.98;10.30;;;;;;;;;;5075239;28;20020;-72
2021/09/11 01:15:37;;;;;;;14.30;12.80;;;;;;;;;;5075330;28;20035;-72
2021/09/11 01:18:04;;;;;;;13.52;11.85;;;;;;;;;;5074942;28;20111;-73
2021/09/11 01:20:30;;;;;;;14.73;11.43;;;;;;;;;;5075104;28;20115;-72
2021/09/11 01:22:56;;;;;;;13.50;11.05;;;;;;;;;;5075140;28;20039;-74
2021/09/11 01:25:22;;;;;;;13.05;11.75;;;;;;;;;;5071176;28;20120;-73
2021/09/11 01:27:49;;;;;;;13.00;11.25;;;;;;;;;;5074617;28;20414;-74
2021/09/11 01:30:16;;;;;;;11.90;10.80;;;;;;;;;;5073526;28;20051;-74
2021/09/11 01:32:42;;;;;;;14.20;12.75;;;;;;;;;;5073231;28;20052;-73
2021/09/11 01:35:08;;;;;;;12.05;10.98;;;;;;;;;;5074985;28;20035;-74
2021/09/11 01:37:34;;;;;;;16.25;11.30;;;;;;;;;;5074745;28;20087;-73
2021/09/11 01:40:00;;;;;;;17.42;11.95;;;;;;;;;;5074875;28;20024;-73
2021/09/11 01:42:27;;;;;;;17.75;11.95;;;;;;;;;;5075015;28;20501;-73
2021/09/11 01:44:54;;;;;;;12.07;10.85;;;;;;;;;;5074889;28;20155;-72
2021/09/11 01:47:20;;;;;;;13.25;11.55;;;;;;;;;;5074569;28;20028;-73
2021/09/11 01:49:46;;;;;;;13.77;11.52;;;;;;;;;;5074378;28;20375;-74
2021/09/11 01:52:12;;;;;;;12.35;10.95;;;;;;;;;;5074841;28;20104;-74
2021/09/11 01:54:38;;;;;;;13.27;11.25;;;;;;;;;;5074409;28;20438;-73
2021/09/11 01:57:06;;;;;;;13.10;11.80;;;;;;;;;;5074891;28;20080;-72
2021/09/11 01:59:32;;;;;;;13.95;11.18;;;;;;;;;;5074775;28;20024;-73
2021/09/11 02:01:58;;;;;;;12.73;11.43;;;;;;;;;;5073263;28;20025;-73
2021/09/11 02:04:24;;;;;;;13.75;11.07;;;;;;;;;;5074640;28;20088;-73
2021/09/11 02:06:51;;;;;;;16.77;11.68;;;;;;;;;;5074494;28;20032;-73
2021/09/11 02:09:17;;;;;;;13.57;12.18;;;;;;;;;;5074762;28;20024;-73
2021/09/11 02:11:43;;;;;;;12.77;11.57;;;;;;;;;;5074147;28;20520;-73
2021/09/11 02:14:09;;;;;;;12.98;11.75;;;;;;;;;;5074372;28;20021;-73
2021/09/11 02:16:35;;;;;;;12.70;11.45;;;;;;;;;;5074155;28;20039;-73
2021/09/11 02:19:01;;;;;;;12.85;11.57;;;;;;;;;;5073776;28;20020;-73
2021/09/11 02:21:27;;;;;;;11.77;10.63;;;;;;;;;;5073739;28;20459;-73
2021/09/11 02:23:53;;;;;;;13.15;11.63;;;;;;;;;;5073785;28;20024;-73
2021/09/11 02:26:19;;;;;;;12.98;11.77;;;;;;;;;;5073851;28;20111;-73
2021/09/11 02:28:45;;;;;;;13.00;11.70;;;;;;;;;;5073998;28;20020;-73
2021/09/11 02:31:11;;;;;;;13.40;12.02;;;;;;;;;;5074169;28;20025;-73
2021/09/11 02:33:38;;;;;;;12.38;11.07;;;;;;;;;;5073916;28;20024;-73
2021/09/11 02:36:04;;;;;;;13.60;11.77;;;;;;;;;;5073800;28;20107;-73
2021/09/11 02:38:30;;;;;;;12.95;11.52;;;;;;;;;;5074020;28;20039;-73
2021/09/11 02:40:56;;;;;;;11.95;10.77;;;;;;;;;;5074241;28;20034;-73
2021/09/11 02:43:22;;;;;;;16.23;11.52;;;;;;;;;;5073586;28;20025;-73
2021/09/11 02:45:48;;;;;;;12.25;11.02;;;;;;;;;;5073352;28;20454;-73
2021/09/11 02:48:14;;;;;;;14.18;12.52;;;;;;;;;;5073475;28;20025;-73
2021/09/11 02:50:41;;;;;;;13.55;12.27;;;;;;;;;;5073619;28;20052;-73
2021/09/11 02:53:07;;;;;;;13.45;12.02;;;;;;;;;;5073627;28;20025;-73
2021/09/11 02:55:33;;;;;;;13.25;11.93;;;;;;;;;;5071097;28;20498;-73
2021/09/11 02:57:59;;;;;;;15.73;12.18;;;;;;;;;;5073372;28;20045;-73
2021/09/11 03:00:25;;;;;;;13.15;11.65;;;;;;;;;;5073831;28;20020;-73
2021/09/11 03:02:51;;;;;;;13.60;12.25;;;;;;;;;;5073685;28;20021;-73
2021/09/11 03:05:17;;;;;;;15.27;11.50;;;;;;;;;;5073070;28;20025;-73
2021/09/11 03:07:43;;;;;;;12.85;11.68;;;;;;;;;;5073570;28;20127;-74
2021/09/11 03:10:09;;;;;;;13.38;12.07;;;;;;;;;;5073896;28;20020;-73
2021/09/11 03:12:36;;;;;;;11.68;10.52;;;;;;;;;;5073840;28;20054;-73
2021/09/11 03:15:02;;;;;;;13.23;11.82;;;;;;;;;;5077207;28;20016;-72
2021/09/11 03:17:28;;;;;;;11.18;10.07;;;;;;;;;;5077646;28;20055;-73
2021/09/11 03:19:54;;;;;;;13.85;12.27;;;;;;;;;;5077288;28;20035;-73
2021/09/11 03:22:20;;;;;;;13.20;11.93;;;;;;;;;;5077798;28;20031;-73
2021/09/11 03:24:46;;;;;;;13.20;11.68;;;;;;;;;;5077807;28;20026;-73
2021/09/11 03:27:12;;;;;;;12.43;10.48;;;;;;;;;;5077452;28;20025;-73
2021/09/11 03:29:38;;;;;;;15.73;11.43;;;;;;;;;;5077642;28;20057;-73
2021/09/11 03:32:04;;;;;;;12.82;11.55;;;;;;;;;;5077146;28;20021;-73
2021/09/11 03:34:31;;;;;;;12.48;10.73;;;;;;;;;;5076724;28;20024;-73
2021/09/11 03:36:57;;;;;;;12.77;11.45;;;;;;;;;;5076934;28;20474;-72
2021/09/11 03:39:23;;;;;;;12.35;11.13;;;;;;;;;;5077263;28;20021;-73
2021/09/11 03:41:49;;;;;;;12.20;10.40;;;;;;;;;;5077026;28;20028;-73
2021/09/11 03:44:15;;;;;;;11.93;10.70;;;;;;;;;;5077024;28;20107;-73
2021/09/11 03:46:41;;;;;;;13.30;11.90;;;;;;;;;;5076978;28;20085;-73
2021/09/11 03:49:07;;;;;;;13.95;11.13;;;;;;;;;;5076544;28;20470;-73
2021/09/11 03:51:34;;;;;;;22.02;12.80;;;;;;;;;;5077162;28;20233;-73
2021/09/11 03:54:01;;;;;;;19.10;11.20;;;;;;;;;;5076576;28;20040;-73
2021/09/11 03:56:27;;;;;;;11.60;10.38;;;;;;;;;;5077012;28;20137;-73
2021/09/11 03:58:53;;;;;;;11.38;10.13;;;;;;;;;;5076621;28;20032;-73
2021/09/11 04:01:19;;;;;;;11.75;10.65;;;;;;;;;;5076578;28;20386;-73
2021/09/11 04:03:45;;;;;;;11.80;10.60;;;;;;;;;;5076073;28;20027;-73
2021/09/11 04:06:11;;;;;;;12.55;11.23;;;;;;;;;;5076650;28;20020;-73
2021/09/11 04:08:37;;;;;;;16.15;11.05;;;;;;;;;;5076374;28;20447;-72
2021/09/11 04:11:03;;;;;;;10.57;9.63;;;;;;;;;;5076823;28;20107;-73
2021/09/11 04:13:30;;;;;;;16.02;10.60;;;;;;;;;;5076600;28;20025;-73
2021/09/11 04:15:56;;;;;;;11.35;10.00;;;;;;;;;;5076267;28;20051;-73
2021/09/11 04:18:22;;;;;;;11.38;10.18;;;;;;;;;;5076299;28;20033;-73
2021/09/11 04:20:48;;;;;;;11.05;9.95;;;;;;;;;;5076885;28;20025;-74
2021/09/11 04:23:14;;;;;;;15.93;10.90;;;;;;;;;;5076303;28;20052;-72
2021/09/11 04:25:40;;;;;;;11.20;10.23;;;;;;;;;;5075065;28;20033;-72
2021/09/11 04:28:06;;;;;;;12.25;11.15;;;;;;;;;;5076097;28;20020;-74
2021/09/11 04:30:32;;;;;;;12.60;11.30;;;;;;;;;;5076584;28;20029;-73
2021/09/11 04:32:58;;;;;;;11.05;10.00;;;;;;;;;;5075978;28;20020;-73
2021/09/11 04:35:24;;;;;;;13.90;10.02;;;;;;;;;;5076181;28;20028;-74
2021/09/11 04:37:50;;;;;;;11.18;10.00;;;;;;;;;;5075801;28;20494;-73
2021/09/11 04:40:16;;;;;;;10.13;9.13;;;;;;;;;;5076205;28;20028;-74
2021/09/11 04:42:43;;;;;;;12.10;9.40;;;;;;;;;;5076225;28;20078;-74
2021/09/11 04:45:09;;;;;;;10.32;9.35;;;;;;;;;;5075857;28;20081;-72
2021/09/11 04:47:35;;;;;;;11.00;9.95;;;;;;;;;;5075901;28;20463;-72
2021/09/11 04:50:01;;;;;;;10.77;9.68;;;;;;;;;;5075643;28;20144;-74
2021/09/11 04:52:27;;;;;;;10.77;9.73;;;;;;;;;;5076369;28;20077;-74
2021/09/11 04:54:53;;;;;;;12.10;10.32;;;;;;;;;;5075677;28;20075;-74
2021/09/11 04:57:19;;;;;;;10.90;9.52;;;;;;;;;;5075998;28;20032;-72
2021/09/11 04:59:45;;;;;;;11.02;10.00;;;;;;;;;;5075584;28;20060;-72
2021/09/11 05:02:11;;;;;;;10.07;9.07;;;;;;;;;;5075308;28;20021;-74
2021/09/11 05:04:37;;;;;;;8.98;8.13;;;;;;;;;;5075564;28;20028;-72
2021/09/11 05:07:04;;;;;;;21.15;10.73;;;;;;;;;;5075383;28;20466;-74
2021/09/11 05:09:30;;;;;;;9.68;8.77;;;;;;;;;;5075237;28;20522;-72
2021/09/11 05:12:00;;;;;;;9.73;8.90;;;;;;;;;;5074994;28;20060;-72
2021/09/11 05:14:26;;;;;;;10.55;9.60;;;;;;;;;;5075626;28;20024;-72
2021/09/11 05:16:53;;;;;;;11.23;9.52;;;;;;;;;;5075032;28;20382;-73
2021/09/11 05:19:19;;;;;;;8.10;7.43;;;;;;;;;;5075261;28;20029;-73
2021/09/11 05:21:45;;;;;;;10.98;9.45;;;;;;;;;;5074949;28;20024;-73
2021/09/11 05:24:11;;;;;;;10.23;8.85;;;;;;;;;;5075084;28;20025;-72
2021/09/11 05:26:37;;;;;;;9.50;8.60;;;;;;;;;;5075205;28;20036;-74
2021/09/11 05:29:03;;;;;;;10.25;9.25;;;;;;;;;;5074769;28;20021;-72
2021/09/11 05:31:29;;;;;;;9.60;8.63;;;;;;;;;;5074905;28;20486;-72
2021/09/11 05:33:55;;;;;;;9.63;8.82;;;;;;;;;;5074751;28;20055;-72
2021/09/11 05:36:21;;;;;;;9.18;8.27;;;;;;;;;;5074582;28;20090;-72
2021/09/11 05:38:47;;;;;;;9.15;8.30;;;;;;;;;;5074861;28;20028;-72
2021/09/11 05:41:13;;;;;;;9.63;8.63;;;;;;;;;;5074830;28;20500;-72
2021/09/11 05:43:39;;;;;;;9.52;8.55;;;;;;;;;;5074768;28;20028;-72
2021/09/11 05:46:05;;;;;;;10.55;9.45;;;;;;;;;;5074176;28;20016;-75
2021/09/11 05:48:34;;;;;;;9.73;8.77;;;;;;;;;;5074687;28;20051;-72
2021/09/11 05:51:00;;;;;;;8.63;7.93;;;;;;;;;;5075045;28;20040;-72
2021/09/11 05:53:26;;;;;;;10.00;8.50;;;;;;;;;;5074807;28;20486;-72
2021/09/11 05:55:52;;;;;;;9.07;8.07;;;;;;;;;;5073957;28;20079;-74
2021/09/11 05:58:20;;;;;;;8.68;7.88;;;;;;;;;;5074018;28;20127;-72
2021/09/11 06:00:46;;;;;;;9.35;8.55;;;;;;;;;;5074156;28;20060;-72
2021/09/11 06:03:12;;;;;;;9.15;8.35;;;;;;;;;;5074310;28;20462;-72
2021/09/11 06:05:41;;;;;;;8.80;8.00;;;;;;;;;;5075550;28;20024;-73
2021/09/11 06:08:08;;;;;;;9.18;8.38;;;;;;;;;;5074851;28;20029;-73
2021/09/11 06:10:34;;;;;;;8.63;7.85;;;;;;;;;;5074011;28;20513;-74
2021/09/11 06:13:00;;;;;;;19.55;8.45;;;;;;;;;;5072505;28;20031;-74
2021/09/11 06:15:27;;;;;;;10.20;9.20;;;;;;;;;;5072232;28;20469;-74
2021/09/11 06:17:53;;;;;;;11.30;9.52;;;;;;;;;;5072475;28;20033;-74
2021/09/11 06:20:19;;;;;;;12.25;9.98;;;;;;;;;;5073000;28;20024;-76
2021/09/11 06:22:45;;;;;;;10.90;9.80;;;;;;;;;;5072675;28;20046;-76
2021/09/11 06:25:13;;;;;;;10.00;9.10;;;;;;;;;;5072876;28;20073;-77
2021/09/11 06:27:40;;;;;;;14.00;10.15;;;;;;;;;;5073128;28;20085;-79
2021/09/11 06:30:07;;;;;;;12.05;10.18;;;;;;;;;;5072919;28;20114;-78
2021/09/11 06:32:33;;;;;;;10.25;9.25;;;;;;;;;;5074026;28;20115;-78
2021/09/11 06:34:59;;;;;;;11.65;9.93;;;;;;;;;;5072381;28;20024;-76
2021/09/11 06:37:25;;;;;;;11.70;10.50;;;;;;;;;;5072363;28;20048;-74
2021/09/11 06:39:51;;;;;;;13.95;10.63;;;;;;;;;;5069899;28;20020;-75
2021/09/11 06:42:19;;;;;;;11.48;10.27;;;;;;;;;;5072165;28;20484;-74
2021/09/11 06:44:46;;;;;;;13.27;12.05;;;;;;;;;;5071969;28;20028;-75
2021/09/11 06:47:12;;;;;;;13.23;12.02;;;;;;;;;;5069781;28;20024;-78
2021/09/11 06:49:38;;;;;;;14.05;12.50;;;;;;;;;;5071548;28;20382;-75
2021/09/11 06:52:04;;;;;;;21.98;12.10;;;;;;;;;;5072140;28;20059;-77
2021/09/11 06:54:31;;;;;;;20.70;15.00;;;;;;;;;;5071749;28;20140;-75
2021/09/11 06:56:57;;;;;;;31.65;18.60;;;;;;;;;;5069439;28;20409;-77
2021/09/11 06:59:23;;;;;;;47.10;24.40;;;;;;;;;;5072382;28;20016;-78
2021/09/11 07:01:49;;;;;;;39.72;24.05;;;;;;;;;;5072295;28;20407;-78
2021/09/11 07:04:15;;;;;;;29.30;21.70;;;;;;;;;;5071877;28;20016;-77
2021/09/11 07:06:41;;;;;;;37.58;22.55;;;;;;;;;;5071948;28;20028;-76
2021/09/11 07:09:07;;;;;;;30.52;20.38;;;;;;;;;;5072172;28;20070;-75
2021/09/11 07:11:33;;;;;;;30.80;19.52;;;;;;;;;;5072233;28;20142;-78
2021/09/11 07:13:59;;;;;;;40.90;22.98;;;;;;;;;;5071746;28;20048;-77
2021/09/11 07:16:25;;;;;;;31.73;20.73;;;;;;;;;;5072481;28;20029;-78
2021/09/11 07:18:51;;;;;;;28.65;22.08;;;;;;;;;;5072021;28;20027;-76
2021/09/11 07:21:17;;;;;;;27.33;19.35;;;;;;;;;;5069414;28;20017;-76
2021/09/11 07:23:43;;;;;;;32.60;20.33;;;;;;;;;;5071274;28;20174;-75
2021/09/11 07:26:11;;;;;;;34.50;20.20;;;;;;;;;;5072049;28;20020;-74
2021/09/11 07:28:38;;;;;;;28.52;20.13;;;;;;;;;;5071514;28;20033;-75
2021/09/11 07:31:04;;;;;;;27.25;19.05;;;;;;;;;;5071961;28;20024;-76
2021/09/11 07:33:30;;;;;;;36.88;19.77;;;;;;;;;;5069469;28;20070;-79
2021/09/11 07:35:56;;;;;;;26.60;19.73;;;;;;;;;;5073239;28;20032;-80
2021/09/11 07:38:22;;;;;;;26.10;18.55;;;;;;;;;;5074470;28;20035;-78
2021/09/11 07:40:48;;;;;;;21.58;16.80;;;;;;;;;;5074401;28;20028;-77
2021/09/11 07:43:14;;;;;;;25.30;18.13;;;;;;;;;;5072214;28;20024;-77
2021/09/11 07:45:40;;;;;;;25.15;17.83;;;;;;;;;;5072992;28;20027;-77
2021/09/11 07:48:07;;;;;;;22.25;17.63;;;;;;;;;;5072983;28;20373;-80
2021/09/11 07:50:35;;;;;;;26.30;18.15;;;;;;;;;;5073514;28;20032;-75
2021/09/11 07:53:02;;;;;;;28.60;17.27;;;;;;;;;;5073181;28;20024;-80
2021/09/11 07:55:28;;;;;;;24.10;18.42;;;;;;;;;;5073097;28;20504;-76
2021/09/11 07:57:54;;;;;;;26.05;16.77;;;;;;;;;;5071269;28;20043;-74
2021/09/11 08:00:20;;;;;;;18.90;16.90;;;;;;;;;;5074168;28;20028;-76
2021/09/11 08:02:46;;;;;;;17.98;16.00;;;;;;;;;;5076187;28;20035;-76
2021/09/11 08:05:12;;;;;;;36.28;18.27;;;;;;;;;;5077170;28;20101;-76
2021/09/11 08:07:38;;;;;;;21.30;16.67;;;;;;;;;;5076111;28;20074;-75
2021/09/11 08:10:05;;;;;;;25.67;16.38;;;;;;;;;;5077048;28;20536;-77
2021/09/11 08:12:31;;;;;;;32.70;16.80;;;;;;;;;;5076630;28;20032;-76
2021/09/11 08:14:58;;;;;;;18.73;15.70;;;;;;;;;;5076330;28;20108;-77
2021/09/11 08:17:24;;;;;;;19.63;13.95;;;;;;;;;;5074958;28;20036;-77
2021/09/11 08:19:51;;;;;;;21.02;16.38;;;;;;;;;;5076590;28;20028;-78
2021/09/11 08:22:17;;;;;;;22.10;15.20;;;;;;;;;;5076998;28;20024;-73
2021/09/11 08:24:43;;;;;;;21.13;15.32;;;;;;;;;;5076349;28;20025;-75
2021/09/11 08:27:09;;;;;;;30.77;18.13;;;;;;;;;;5076501;28;20055;-75
2021/09/11 08:29:35;;;;;;;16.75;14.98;;;;;;;;;;5077011;28;20021;-78
2021/09/11 08:32:02;;;;;;;16.70;15.00;;;;;;;;;;5076781;28;20028;-77
2021/09/11 08:34:28;;;;;;;20.77;15.13;;;;;;;;;;5077828;28;20028;-80
2021/09/11 08:36:54;;;;;;;16.30;13.25;;;;;;;;;;5075448;28;20166;-79
2021/09/11 08:39:24;;;;;;;16.17;13.23;;;;;;;;;;5077170;28;20113;-77
2021/09/11 08:41:50;;;;;;;16.02;14.35;;;;;;;;;;5075898;28;20032;-76
2021/09/11 08:44:16;;;;;;;16.35;13.10;;;;;;;;;;5078766;28;20017;-78
2021/09/11 08:46:43;;;;;;;16.23;13.82;;;;;;;;;;5078915;28;20398;-78
2021/09/11 08:49:10;;;;;;;16.85;13.77;;;;;;;;;;5077983;28;20459;-78
2021/09/11 08:51:36;;;;;;;14.43;12.95;;;;;;;;;;5077708;28;20058;-76
2021/09/11 08:54:03;;;;;;;17.85;11.82;;;;;;;;;;5077411;28;20024;-77
2021/09/11 08:56:29;;;;;;;18.52;12.38;;;;;;;;;;5077515;28;20471;-78
2021/09/11 08:59:15;;;;;;;14.30;11.32;;;;;;;;;;5077713;28;20024;-75
2021/09/11 09:01:41;;;;;;;13.93;12.43;;;;;;;;;;5062643;28;20075;-80
2021/09/11 09:04:07;;;;;;;27.63;13.05;;;;;;;;;;5078891;28;20017;-78
2021/09/11 09:06:34;;;;;;;14.32;12.93;;;;;;;;;;5076831;28;20025;-77
2021/09/11 09:09:15;;;;;;;16.58;12.70;;;;;;;;;;5075532;28;20031;-78
2021/09/11 09:11:42;;;;;;;16.42;11.02;;;;;;;;;;5077790;28;20031;-76
2021/09/11 09:14:11;;;;;;;18.65;12.55;;;;;;;;;;5077365;28;20035;-79
2021/09/11 09:16:38;;;;;;;17.27;12.80;;;;;;;;;;5078027;28;20033;-73
2021/09/11 09:19:05;;;;;;;15.60;11.32;;;;;;;;;;5076413;28;20027;-74
2021/09/11 09:21:32;;;;;;;18.20;12.52;;;;;;;;;;5076316;28;20029;-76
2021/09/11 09:24:00;;;;;;;14.15;12.13;;;;;;;;;;5076420;28;20066;-76
2021/09/11 09:26:26;;;;;;;16.73;9.98;;;;;;;;;;5077153;28;20032;-76
2021/09/11 09:29:09;;;;;;;14.88;10.65;;;;;;;;;;5077197;28;20346;-75
2021/09/11 09:31:35;;;;;;;10.88;9.73;;;;;;;;;;5075765;28;20077;-76
2021/09/11 09:34:01;;;;;;;11.27;8.68;;;;;;;;;;5075528;28;20107;-77
2021/09/11 09:36:31;;;;;;;16.73;9.07;;;;;;;;;;5075961;28;20036;-76
2021/09/11 09:38:59;;;;;;;13.55;8.75;;;;;;;;;;5075080;28;20025;-77
2021/09/11 09:41:25;;;;;;;16.23;8.20;;;;;;;;;;5075455;28;20025;-77
2021/09/11 09:43:52;;;;;;;9.32;8.52;;;;;;;;;;5073102;28;20020;-77
2021/09/11 09:46:19;;;;;;;12.18;7.55;;;;;;;;;;5074970;28;20029;-77
2021/09/11 09:48:45;;;;;;;11.90;7.28;;;;;;;;;;5074508;28;20031;-78
2021/09/11 09:51:12;;;;;;;11.23;7.50;;;;;;;;;;5074019;28;20444;-77
2021/09/11 09:53:39;;;;;;;12.23;8.27;;;;;;;;;;5075026;28;20103;-77
2021/09/11 09:56:05;;;;;;;11.27;8.80;;;;;;;;;;5074355;28;20127;-75
2021/09/11 09:58:31;;;;;;;9.45;8.38;;;;;;;;;;5074272;28;20028;-75
2021/09/11 10:00:57;;;;;;;17.60;7.53;;;;;;;;;;5074480;28;20035;-77
2021/09/11 10:03:24;;;;;;;10.85;6.88;;;;;;;;;;5074517;28;20031;-78
2021/09/11 10:05:50;;;;;;;10.05;6.22;;;;;;;;;;5074717;28;20021;-78
2021/09/11 10:08:17;;;;;;;8.43;6.97;;;;;;;;;;5075164;28;20486;-78
2021/09/11 10:10:44;;;;;;;8.20;6.47;;;;;;;;;;5075139;28;20070;-77
2021/09/11 10:13:11;;;;;;;8.93;5.90;;;;;;;;;;5074460;28;20021;-76
2021/09/11 10:15:38;;;;;;;13.13;7.15;;;;;;;;;;5074402;28;20592;-77
2021/09/11 10:18:06;;;;;;;10.02;6.43;;;;;;;;;;5074004;28;20036;-77
2021/09/11 10:20:52;;;;;;;9.75;5.97;;;;;;;;;;5075003;28;20027;-77
2021/09/11 10:23:18;;;;;;;7.85;6.15;;;;;;;;;;5058979;28;20110;-77
2021/09/11 10:25:44;;;;;;;7.70;5.50;;;;;;;;;;5074004;28;20032;-78
2021/09/11 10:28:11;;;;;;;12.18;6.20;;;;;;;;;;5074241;28;20064;-77
2021/09/11 10:30:57;;;;;;;7.63;5.60;;;;;;;;;;5073819;28;20027;-77
2021/09/11 10:33:43;;;;;;;9.10;5.55;;;;;;;;;;5059282;28;20029;-77
2021/09/11 10:36:11;;;;;;;15.55;5.35;;;;;;;;;;5058934;28;20477;-77
2021/09/11 10:38:39;;;;;;;8.57;4.93;;;;;;;;;;5070297;28;20437;-76
2021/09/11 10:41:07;;;;;;;8.80;4.70;;;;;;;;;;5073133;28;20039;-74
2021/09/11 10:43:34;;;;;;;7.40;5.63;;;;;;;;;;5074246;28;20103;-77
2021/09/11 10:46:02;;;;;;;9.52;4.80;;;;;;;;;;5073421;28;20031;-76
2021/09/11 10:48:40;;;;;;;8.48;5.25;;;;;;;;;;5069493;28;20413;-79
2021/09/11 10:51:28;;;;;;;9.88;4.57;;;;;;;;;;5070605;28;20024;-75
2021/09/11 10:53:56;;;;;;;5.95;4.30;;;;;;;;;;5057803;28;20020;-75
2021/09/11 10:56:24;;;;;;;5.05;4.22;;;;;;;;;;5071900;28;20557;-75
2021/09/11 10:59:10;;;;;;;8.88;5.13;;;;;;;;;;5073570;28;20032;-76
2021/09/11 11:01:56;;;;;;;9.15;4.70;;;;;;;;;;5058708;28;20059;-75
2021/09/11 11:04:24;;;;;;;7.40;4.45;;;;;;;;;;5058436;28;20111;-76
2021/09/11 11:06:52;;;;;;;6.45;4.70;;;;;;;;;;5073278;28;20037;-76
2021/09/11 11:09:18;;;;;;;8.23;4.35;;;;;;;;;;5073067;28;20020;-76
2021/09/11 11:11:44;;;;;;;24.60;4.97;;;;;;;;;;5072418;28;20021;-73
2021/09/11 11:14:10;;;;;;;13.05;5.75;;;;;;;;;;5072018;28;20025;-76
2021/09/11 11:16:52;;;;;;;5.68;4.90;;;;;;;;;;5071867;28;20456;-73
2021/09/11 11:19:26;;;;;;;7.63;5.75;;;;;;;;;;5071928;28;20016;-73
2021/09/11 11:21:57;;;;;;;4.57;4.03;;;;;;;;;;5069514;28;20025;-75
2021/09/11 11:24:23;;;;;;;6.38;5.05;;;;;;;;;;5069037;28;20463;-77
2021/09/11 11:26:49;;;;;;;10.75;5.57;;;;;;;;;;5069633;28;20056;-80
2021/09/11 11:29:17;;;;;;;9.65;5.18;;;;;;;;;;5070028;28;20103;-76
2021/09/11 11:31:43;;;;;;;5.30;4.80;;;;;;;;;;5071060;28;20090;-75
2021/09/11 11:34:12;;;;;;;12.13;5.50;;;;;;;;;;5071927;28;20017;-71
2021/09/11 11:36:38;;;;;;;10.82;6.68;;;;;;;;;;5075867;28;20024;-75
2021/09/11 11:39:21;;;;;;;14.93;6.90;;;;;;;;;;5075594;28;20031;-73
2021/09/11 11:42:07;;;;;;;7.20;5.05;;;;;;;;;;5073922;28;20044;-74
2021/09/11 11:44:34;;;;;;;6.72;5.60;;;;;;;;;;5066488;28;20482;-74
2021/09/11 11:47:05;;;;;;;10.40;5.70;;;;;;;;;;5073338;28;20031;-72
2021/09/11 11:49:33;;;;;;;7.60;5.55;;;;;;;;;;5075543;28;20044;-72
2021/09/11 11:51:59;;;;;;;9.50;5.30;;;;;;;;;;5072909;28;20024;-74
2021/09/11 11:54:25;;;;;;;16.13;6.47;;;;;;;;;;5075242;28;20060;-74
2021/09/11 11:56:52;;;;;;;8.27;5.68;;;;;;;;;;5075656;28;20054;-76
2021/09/11 11:59:26;;;;;;;5.30;4.80;;;;;;;;;;5075212;28;20020;-76
2021/09/11 12:01:52;;;;;;;10.65;5.85;;;;;;;;;;5075610;28;20016;-73
2021/09/11 12:04:19;;;;;;;8.38;6.55;;;;;;;;;;5076613;28;20042;-77
2021/09/11 12:06:48;;;;;;;8.65;5.75;;;;;;;;;;5074864;28;20390;-74
2021/09/11 12:09:15;;;;;;;5.88;5.05;;;;;;;;;;5075127;28;20040;-74
2021/09/11 12:11:41;;;;;;;7.25;6.55;;;;;;;;;;5072664;28;20559;-77
2021/09/11 12:14:08;;;;;;;5.43;4.63;;;;;;;;;;5074969;28;20104;-74
2021/09/11 12:16:34;;;;;;;10.02;4.45;;;;;;;;;;5075011;28;20078;-76
2021/09/11 12:19:18;;;;;;;6.95;4.13;;;;;;;;;;5072377;28;20482;-77
2021/09/11 12:21:44;;;;;;;5.95;4.80;;;;;;;;;;5072686;28;20028;-75
2021/09/11 12:24:33;;;;;;;7.18;5.20;;;;;;;;;;5075330;28;20031;-77
2021/09/11 12:27:16;;;;;;;9.18;4.68;;;;;;;;;;5067893;28;20020;-74
2021/09/11 12:29:43;;;;;;;5.00;3.70;;;;;;;;;;5073621;28;20020;-84
2021/09/11 12:32:16;;;;;;;7.25;5.18;;;;;;;;;;5074723;28;20031;-78
2021/09/11 12:34:44;;;;;;;4.68;3.90;;;;;;;;;;5074661;28;20031;-76
2021/09/11 12:37:10;;;;;;;4.88;4.30;;;;;;;;;;5074406;28;20024;-73
2021/09/11 12:39:36;;;;;;;7.20;4.80;;;;;;;;;;5070536;28;20040;-76
2021/09/11 12:42:03;;;;;;;5.28;4.25;;;;;;;;;;5074000;28;20033;-74
2021/09/11 12:44:32;;;;;;;6.70;4.82;;;;;;;;;;5074739;28;20021;-75
2021/09/11 12:47:03;;;;;;;14.68;5.75;;;;;;;;;;5073486;28;20048;-78
2021/09/11 12:49:29;;;;;;;5.28;4.25;;;;;;;;;;5074294;28;20517;-79
2021/09/11 12:51:55;;;;;;;8.10;4.45;;;;;;;;;;5074666;28;20017;-80
2021/09/11 12:54:22;;;;;;;4.68;3.42;;;;;;;;;;5073994;28;20029;-79
2021/09/11 12:56:48;;;;;;;18.02;5.45;;;;;;;;;;5074551;28;20020;-81
2021/09/11 12:59:14;;;;;;;5.45;3.88;;;;;;;;;;5074921;28;20417;-77
2021/09/11 13:01:41;;;;;;;7.18;4.13;;;;;;;;;;5074197;28;20405;-79
2021/09/11 13:04:08;;;;;;;5.45;4.93;;;;;;;;;;5074264;28;20016;-80
2021/09/11 13:06:34;;;;;;;9.30;4.38;;;;;;;;;;5074709;28;20056;-74
2021/09/11 13:09:00;;;;;;;8.25;5.18;;;;;;;;;;5074073;28;20370;-79
2021/09/11 13:11:26;;;;;;;5.97;4.80;;;;;;;;;;5073978;28;20028;-78
2021/09/11 13:13:52;;;;;;;7.50;4.72;;;;;;;;;;5074052;28;20411;-79
2021/09/11 13:16:18;;;;;;;9.60;4.63;;;;;;;;;;5074633;28;20027;-82
2021/09/11 13:18:45;;;;;;;4.82;4.38;;;;;;;;;;5074078;28;20029;-78
2021/09/11 13:21:12;;;;;;;5.15;4.65;;;;;;;;;;5071991;28;20481;-81
2021/09/11 13:23:40;;;;;;;5.72;4.80;;;;;;;;;;5075248;28;20023;-76
2021/09/11 13:26:06;;;;;;;9.07;4.75;;;;;;;;;;5075884;28;20021;-81
2021/09/11 13:28:32;;;;;;;7.82;4.35;;;;;;;;;;5075162;28;20477;-77
2021/09/11 13:30:58;;;;;;;8.23;5.05;;;;;;;;;;5076036;28;20105;-79
2021/09/11 13:33:24;;;;;;;9.65;4.82;;;;;;;;;;5076071;28;20024;-76
2021/09/11 13:35:52;;;;;;;9.02;6.10;;;;;;;;;;5074699;28;20088;-76
2021/09/11 13:38:19;;;;;;;7.25;4.68;;;;;;;;;;5076287;28;20036;-79
2021/09/11 13:40:45;;;;;;;7.47;4.38;;;;;;;;;;5076227;28;20104;-79
2021/09/11 13:43:11;;;;;;;6.55;4.45;;;;;;;;;;5077112;28;20029;-78
2021/09/11 13:45:37;;;;;;;5.07;4.38;;;;;;;;;;5076125;28;20504;-78
2021/09/11 13:48:04;;;;;;;7.30;4.88;;;;;;;;;;5077145;28;20033;-79
2021/09/11 13:50:30;;;;;;;6.53;4.55;;;;;;;;;;5072798;28;20021;-77
2021/09/11 13:52:56;;;;;;;16.98;5.65;;;;;;;;;;5075169;28;20052;-78
2021/09/11 13:55:23;;;;;;;6.20;5.15;;;;;;;;;;5075395;28;20635;-79
2021/09/11 13:57:49;;;;;;;5.75;4.95;;;;;;;;;;5076505;28;20037;-80
2021/09/11 14:00:15;;;;;;;6.57;5.43;;;;;;;;;;5076681;28;20024;-76
2021/09/11 14:02:42;;;;;;;8.85;4.90;;;;;;;;;;5075160;28;20103;-79
2021/09/11 14:05:08;;;;;;;8.13;4.95;;;;;;;;;;5076446;28;20021;-78
2021/09/11 14:07:34;;;;;;;61.85;8.82;;;;;;;;;;5075791;28;20493;-80
2021/09/11 14:10:00;;;;;;;7.75;5.50;;;;;;;;;;5074826;28;20390;-79
2021/09/11 14:12:26;;;;;;;12.88;5.88;;;;;;;;;;5074568;28;20029;-79
2021/09/11 14:14:52;;;;;;;8.48;5.07;;;;;;;;;;5073552;28;20024;-79
2021/09/11 14:17:18;;;;;;;7.85;4.97;;;;;;;;;;5075675;28;20382;-77
2021/09/11 14:19:44;;;;;;;10.43;5.47;;;;;;;;;;5074880;28;20386;-78
2021/09/11 14:22:10;;;;;;;5.65;4.90;;;;;;;;;;5074682;28;20347;-77
2021/09/11 14:24:37;;;;;;;5.57;4.55;;;;;;;;;;5076589;28;20031;-79